APRIL, 20 2014

 

METAR SMJP 201700Z 05016KT 9999 FEW010CB FEW015 SCT022 29/25 Q1013 NOSIG=

METAR SMZO 201700Z 03006KT 9999 FEW018CB SCT020 27/23 Q1013 NOSIG=

METAR SMNI 201700Z 06010KT 9999 SCT018 BKN030 28/25 Q1013 NOSIG=